Four Rigoletto — 9HA4672 — position and weather

sailwx.info

Track history (hours):
 
Tides and Currents Weather Stations Pressure Air Temp Water Temp Dewpoint Dewpoint Depression Visibility Wind Speed Wind Dir Waves Ship Positions

Four Rigoletto

Last reported at 2017-Nov-12 14:23 UTC. Time now 2017-Nov-23 17:05 UTC.
Position N 36°22' E 015°02'.
Warning: this ship's position is 11 days out of date.

Length 181 m; draft 9 m.

Type: Cargo ship. MMSI: 248189100.

Date/timePositionNaut miles runAvg speedWind from/ knotsBaromVisibWave heightAir tempDewpointWater temp
2017-Nov-12 14:23N 36°22' E 015°02'613.2
2017-Nov-12 13:56N 36°22' E 014°54'613.3
2017-Nov-12 13:30N 36°24' E 014°47'613.2
2017-Nov-12 13:00N 36°25' E 014°39'713.1
2017-Nov-12 12:30N 36°27' E 014°31'713.2
2017-Nov-12 12:00N 36°29' E 014°24'713.5
2017-Nov-12 11:30N 36°31' E 014°16'713.4
2017-Nov-12 10:58N 36°33' E 014°07'  
2017-Nov-08 11:05N 38°27' W 010°02'113.5
2017-Nov-08 10:59N 38°29' W 010°02'613.4
2017-Nov-08 10:30N 38°35' W 010°04'713.4
2017-Nov-08 10:00N 38°41' W 010°05'713.2
2017-Nov-08 09:30N 38°48' W 010°07'713.1
2017-Nov-08 09:00N 38°54' W 010°07'713.9
2017-Nov-08 08:30N 39°01' W 010°07'713.8
2017-Nov-08 08:00N 39°08' W 010°07'813.5
2017-Nov-08 07:24N 39°16' W 010°07'  
2017-Nov-06 01:58N 49°43' W 003°37'815.7
2017-Nov-06 01:28N 49°47' W 003°26'715.9
2017-Nov-06 01:00N 49°51' W 003°16'815.7
2017-Nov-06 00:30N 49°55' W 003°06'815.1
2017-Nov-06 00:01N 49°59' W 002°56'814.5
2017-Nov-05 23:29N 50°01' W 002°44'613.6
2017-Nov-05 23:00N 50°02' W 002°34'2910.6
2017-Nov-05 20:18N 50°10' W 001°51'3 9.5
2017-Nov-05 20:01N 50°11' W 001°47'5 9.6
2017-Nov-05 19:31N 50°12' W 001°40'510.3
2017-Nov-05 19:00N 50°14' W 001°32'811.6
2017-Nov-05 18:21N 50°16' W 001°21'3014.7
2017-Nov-05 16:18N 50°25' W 000°35'615.8
2017-Nov-05 15:55N 50°26' W 000°26'615.5
2017-Nov-05 15:30N 50°27' W 000°16'815.3
2017-Nov-05 15:00N 50°29' W 000°05'815.1
2017-Nov-05 14:30N 50°31' E 000°07'714.8
2017-Nov-05 14:00N 50°33' E 000°18'714.5
2017-Nov-05 13:30N 50°35' E 000°29'713.7
2017-Nov-05 13:00N 50°38' E 000°39'713.4
2017-Nov-05 12:30N 50°42' E 000°47'612.7
2017-Nov-05 12:00N 50°45' E 000°56'612.4
2017-Nov-05 11:30N 50°49' E 001°04'612.2
2017-Nov-05 10:59N 50°52' E 001°12'612.4
2017-Nov-05 10:30N 50°56' E 001°20'713.6
2017-Nov-05 10:00N 51°01' E 001°27'815.5
2017-Nov-05 09:30N 51°06' E 001°35'816.2
2017-Nov-05 09:01N 51°13' E 001°44'816.8
2017-Nov-05 08:31N 51°20' E 001°51'816.3
2017-Nov-05 08:01N 51°27' E 001°58'815.8
2017-Nov-05 07:31N 51°32' E 002°06'815.4
2017-Nov-05 07:00N 51°38' E 002°15'47212.6
2017-Nov-03 17:34N 57°50' E 010°38'112.2
2017-Nov-03 17:30N 57°50' E 010°40'612.1
2017-Nov-03 16:59N 57°46' E 010°48'510.9
2017-Nov-03 16:29N 57°42' E 010°40'1 2.4
2017-Nov-03 15:56N 57°42' E 010°38'0 0.0
2017-Nov-03 14:47N 57°42' E 010°38'0 0.0
2017-Nov-03 14:02N 57°42' E 010°38'0 0.1
2017-Nov-03 13:59N 57°42' E 010°38'0 0.0
2017-Nov-03 13:20N 57°42' E 010°38'0 0.0
2017-Nov-03 12:50N 57°42' E 010°38'0 0.0
2017-Nov-03 12:29N 57°42' E 010°38'0 0.0
2017-Nov-03 11:56N 57°42' E 010°38'0 0.0
2017-Nov-03 11:20N 57°42' E 010°38'0 0.0
2017-Nov-03 10:47N 57°42' E 010°38'0 0.1
2017-Nov-03 10:29N 57°42' E 010°38'0 0.3
2017-Nov-03 10:00N 57°42' E 010°38'3 6.2
2017-Nov-03 09:28N 57°40' E 010°44'612.5
2017-Nov-03 09:00N 57°36' E 010°51'713.5
2017-Nov-03 08:30N 57°33' E 011°03'713.6
2017-Nov-03 08:00N 57°30' E 011°14'713.1
2017-Nov-03 07:30N 57°28' E 011°25'713.8
2017-Nov-03 07:00N 57°22' E 011°30'713.4
2017-Nov-03 06:30N 57°15' E 011°34'2113.3
2017-Nov-03 04:54N 56°55' E 011°47'1212.6
2017-Nov-03 03:58N 56°44' E 011°51'714.4
2017-Nov-03 03:29N 56°38' E 011°45'714.2
2017-Nov-03 03:00N 56°32' E 011°39'1414.0
2017-Nov-03 02:00N 56°20' E 011°26'6811.0
2017-Nov-02 19:52N 55°13' E 011°06'411.8
2017-Nov-02 19:30N 55°09' E 011°03'612.0
2017-Nov-02 19:01N 55°03' E 011°01'612.0
2017-Nov-02 18:30N 54°58' E 010°56'612.1
2017-Nov-02 18:00N 54°53' E 010°50'611.9
2017-Nov-02 17:30N 54°47' E 010°49'510.7
2017-Nov-02 17:00N 54°41' E 010°46'4 9.0
2017-Nov-02 16:30N 54°39' E 010°52'611.4
2017-Nov-02 16:01N 54°36' E 011°01'611.9
2017-Nov-02 15:30N 54°36' E 011°11'611.6
2017-Nov-02 15:01N 54°33' E 011°20'612.8
2017-Nov-02 14:30N 54°30' E 011°30'  
Track history (hours):
 
Tides and Currents Weather Stations Pressure Air Temp Water Temp Dewpoint Dewpoint Depression Visibility Wind Speed Wind Dir Waves Ship Positions

Four Rigoletto

Last reported at 2017-Nov-12 14:23 UTC. Time now 2017-Nov-23 17:05 UTC.
Position N 36°22' E 015°02'.
Warning: this ship's position is 11 days out of date.

Length 181 m; draft 9 m.

Type: Cargo ship. MMSI: 248189100.

Date/timePositionNaut miles runAvg speedWind from/ knotsBaromVisibWave heightAir tempDewpointWater temp
2017-Nov-12 14:23N 36°22' E 015°02'613.2
2017-Nov-12 13:56N 36°22' E 014°54'613.3
2017-Nov-12 13:30N 36°24' E 014°47'613.2
2017-Nov-12 13:00N 36°25' E 014°39'713.1
2017-Nov-12 12:30N 36°27' E 014°31'713.2
2017-Nov-12 12:00N 36°29' E 014°24'713.5
2017-Nov-12 11:30N 36°31' E 014°16'713.4
2017-Nov-12 10:58N 36°33' E 014°07'  
2017-Nov-08 11:05N 38°27' W 010°02'113.5
2017-Nov-08 10:59N 38°29' W 010°02'613.4
2017-Nov-08 10:30N 38°35' W 010°04'713.4
2017-Nov-08 10:00N 38°41' W 010°05'713.2
2017-Nov-08 09:30N 38°48' W 010°07'713.1
2017-Nov-08 09:00N 38°54' W 010°07'713.9
2017-Nov-08 08:30N 39°01' W 010°07'713.8
2017-Nov-08 08:00N 39°08' W 010°07'813.5
2017-Nov-08 07:24N 39°16' W 010°07'  
2017-Nov-06 01:58N 49°43' W 003°37'815.7
2017-Nov-06 01:28N 49°47' W 003°26'715.9
2017-Nov-06 01:00N 49°51' W 003°16'815.7
2017-Nov-06 00:30N 49°55' W 003°06'815.1
2017-Nov-06 00:01N 49°59' W 002°56'814.5
2017-Nov-05 23:29N 50°01' W 002°44'613.6
2017-Nov-05 23:00N 50°02' W 002°34'2910.6
2017-Nov-05 20:18N 50°10' W 001°51'3 9.5
2017-Nov-05 20:01N 50°11' W 001°47'5 9.6
2017-Nov-05 19:31N 50°12' W 001°40'510.3
2017-Nov-05 19:00N 50°14' W 001°32'811.6
2017-Nov-05 18:21N 50°16' W 001°21'3014.7
2017-Nov-05 16:18N 50°25' W 000°35'615.8
2017-Nov-05 15:55N 50°26' W 000°26'615.5
2017-Nov-05 15:30N 50°27' W 000°16'815.3
2017-Nov-05 15:00N 50°29' W 000°05'815.1
2017-Nov-05 14:30N 50°31' E 000°07'714.8
2017-Nov-05 14:00N 50°33' E 000°18'714.5
2017-Nov-05 13:30N 50°35' E 000°29'713.7
2017-Nov-05 13:00N 50°38' E 000°39'713.4
2017-Nov-05 12:30N 50°42' E 000°47'612.7
2017-Nov-05 12:00N 50°45' E 000°56'612.4
2017-Nov-05 11:30N 50°49' E 001°04'612.2
2017-Nov-05 10:59N 50°52' E 001°12'612.4
2017-Nov-05 10:30N 50°56' E 001°20'713.6
2017-Nov-05 10:00N 51°01' E 001°27'815.5
2017-Nov-05 09:30N 51°06' E 001°35'816.2
2017-Nov-05 09:01N 51°13' E 001°44'816.8
2017-Nov-05 08:31N 51°20' E 001°51'816.3
2017-Nov-05 08:01N 51°27' E 001°58'815.8
2017-Nov-05 07:31N 51°32' E 002°06'815.4
2017-Nov-05 07:00N 51°38' E 002°15'47212.6
2017-Nov-03 17:34N 57°50' E 010°38'112.2
2017-Nov-03 17:30N 57°50' E 010°40'612.1
2017-Nov-03 16:59N 57°46' E 010°48'510.9
2017-Nov-03 16:29N 57°42' E 010°40'1 2.4
2017-Nov-03 15:56N 57°42' E 010°38'0 0.0
2017-Nov-03 14:47N 57°42' E 010°38'0 0.0
2017-Nov-03 14:02N 57°42' E 010°38'0 0.1
2017-Nov-03 13:59N 57°42' E 010°38'0 0.0
2017-Nov-03 13:20N 57°42' E 010°38'0 0.0
2017-Nov-03 12:50N 57°42' E 010°38'0 0.0
2017-Nov-03 12:29N 57°42' E 010°38'0 0.0
2017-Nov-03 11:56N 57°42' E 010°38'0 0.0
2017-Nov-03 11:20N 57°42' E 010°38'0 0.0
2017-Nov-03 10:47N 57°42' E 010°38'0 0.1
2017-Nov-03 10:29N 57°42' E 010°38'0 0.3
2017-Nov-03 10:00N 57°42' E 010°38'3 6.2
2017-Nov-03 09:28N 57°40' E 010°44'612.5
2017-Nov-03 09:00N 57°36' E 010°51'713.5
2017-Nov-03 08:30N 57°33' E 011°03'713.6
2017-Nov-03 08:00N 57°30' E 011°14'713.1
2017-Nov-03 07:30N 57°28' E 011°25'713.8
2017-Nov-03 07:00N 57°22' E 011°30'713.4
2017-Nov-03 06:30N 57°15' E 011°34'2113.3
2017-Nov-03 04:54N 56°55' E 011°47'1212.6
2017-Nov-03 03:58N 56°44' E 011°51'714.4
2017-Nov-03 03:29N 56°38' E 011°45'714.2
2017-Nov-03 03:00N 56°32' E 011°39'1414.0
2017-Nov-03 02:00N 56°20' E 011°26'6811.0
2017-Nov-02 19:52N 55°13' E 011°06'411.8
2017-Nov-02 19:30N 55°09' E 011°03'612.0
2017-Nov-02 19:01N 55°03' E 011°01'612.0
2017-Nov-02 18:30N 54°58' E 010°56'612.1
2017-Nov-02 18:00N 54°53' E 010°50'611.9
2017-Nov-02 17:30N 54°47' E 010°49'510.7
2017-Nov-02 17:00N 54°41' E 010°46'4 9.0
2017-Nov-02 16:30N 54°39' E 010°52'611.4
2017-Nov-02 16:01N 54°36' E 011°01'611.9
2017-Nov-02 15:30N 54°36' E 011°11'611.6
2017-Nov-02 15:01N 54°33' E 011°20'612.8
2017-Nov-02 14:30N 54°30' E 011°30'  

Dump ship's entire track history